ドゥシャンベ空港の過去48時間の天気

ドゥシャンベ空港 (Dushanbe)

現在時刻: 10/28 22:55 +05 (10/28 17:55 UTC) 以下の時間は現地時間です。

過去48時間のMETAR気象情報
時間 風向 風速(m/s) 視程 気温(℃) 湿度(%) 気圧(hPa) 天気現象
28 22:30 静穏 0 5000m 10 54 1030 煙霧
28 22:00 不定 1 5000m 10 54 1029 煙霧
28 21:30 北西 1 4600m 11 50 1029 煙霧
28 21:00 西 1 5000m 11 50 1029 煙霧
28 20:30 不定 1 5000m 11 47 1029 煙霧
28 20:00 南西 2 5000m 12 44 1028 煙霧
28 19:30 西 3 6000m 12 44 1028
28 19:00 西北西 4 6000m 13 41 1027
28 18:30 西 4 7000m 13 41 1027
28 18:00 西 4 7000m 14 41 1026
28 17:30 西 4 5000m 15 39 1025
28 17:00 西 3 6000m 16 34 1025
28 16:30 西 3 7000m 17 32 1025
28 16:00 西南西 4 7000m 18 30 1024
28 15:30 西南西 4 9000m 19 26 1024
28 15:00 南西 4 10km以上 19 24 1024
28 14:30 南西 4 10km以上 20 23 1024
28 14:00 不定 2 10km以上 20 23 1024
28 13:30 不定 2 10km以上 20 23 1024
28 13:00 不定 2 10km以上 20 21 1024
28 12:30 不定 2 10km以上 20 23 1024
28 12:00 不定 1 10km以上 19 24 1024
28 11:30 不定 2 10km以上 19 24 1024
28 11:00 不定 1 10km以上 18 26 1025
28 10:30 不定 1 9000m 17 29 1024
28 10:00 不定 1 5000m 16 39 1024
28 09:30 2 6000m 16 31 1024
28 09:00 静穏 0 5000m 14 41 1024
28 08:30 静穏 0 7000m 13 44 1023
28 08:00 静穏 0 7000m 11 50 1023
28 07:30 不定 1 7000m 11 47 1022
28 07:00 不定 2 9000m 11 43 1022
28 06:30 不定 2 10km以上 10 46 1022
28 06:00 3 10km以上 10 50 1021
28 05:30 不定 2 10km以上 8 57 1021
28 05:00 不定 1 10km以上 10 50 1020
28 04:30 2 10km以上 10 50 1020
28 04:00 北東 1 10km以上 10 46 1020
28 03:30 2 10km以上 10 50 1020
28 03:00 静穏 0 10km以上 10 50 1020
28 02:30 不定 1 9000m 8 57 1020
28 02:00 静穏 0 10km以上 10 50 1020
28 01:30 静穏 0 9000m 10 50 1020
28 01:00 静穏 0 7000m 10 50 1020
28 00:30 静穏 0 8000m 11 43 1019
28 00:00 不定 1 9000m 11 40 1019
27 23:30 不定 1 9000m 12 38 1019
27 23:00 不定 1 9000m 13 33 1019
27 22:30 東北東 3 9000m 15 27 1019
27 22:00 不定 1 8000m 13 33 1019
27 21:30 不定 2 8000m 15 29 1019
27 21:00 東北東 2 9000m 15 31 1018
27 20:30 東北東 2 8000m 14 36 1018
27 20:00 静穏 0 8000m 15 31 1018
27 19:30 静穏 0 9000m 16 27 1017
27 19:00 2 8000m 16 27 1017
27 18:30 西 3 10km以上 19 17 1017
27 18:00 西北西 5 10km以上 20 18 1016
27 17:30 西 4 10km以上 20 19 1016
27 17:00 静穏 0 7000m 21 23 1016
27 16:30 北北西 2 8000m 22 19 1016
27 16:00 北北西 2 10km以上 23 16 1016
27 15:30 不定 1 10km以上 24 10 1016
27 15:00 不定 1 10km以上 24 11 1016
27 14:30 不定 2 10km以上 24 11 1016
27 14:00 西南西 3 10km以上 25 11 1016
27 13:30 不定 2 10km以上 25 13 1017
27 13:00 不定 2 8000m 24 16 1017
27 12:30 不定 2 9000m 23 17 1018
27 12:00 不定 2 8000m 22 19 1018
27 11:30 不定 1 8000m 20 24 1019
27 11:00 不定 1 8000m 19 28 1019
27 10:00 南南西 2 5000m 16 36 1020
27 09:30 不定 2 7000m 15 33 1020
27 09:00 不定 1 9000m 12 35 1020
27 08:30 静穏 0 9000m 12 41 1020
27 08:00 静穏 0 7000m 8 53 1020
27 07:30 不定 1 5000m 5 65 1020
27 07:00 不定 2 8000m 5 61 1020
27 06:30 北東 1 10km以上 6 52 1020
27 06:00 北東 1 10km以上 6 57 1020
27 05:30 不定 1 10km以上 5 65 1020
27 05:00 不定 2 10km以上 6 52 1020
27 04:30 不定 1 10km以上 7 53 1020
27 04:00 不定 1 10km以上 7 49 1020
27 03:30 静穏 0 10km以上 7 49 1020
27 03:00 静穏 0 10km以上 7 53 1020
27 02:30 北東 2 10km以上 8 46 1020
27 02:00 東北東 2 10km以上 9 43 1021
27 01:30 静穏 0 10km以上 7 53 1021
27 01:00 静穏 0 10km以上 8 49 1021
27 00:30 北東 2 10km以上 10 40 1021
27 00:00 静穏 0 10km以上 9 50 1021
26 23:30 不定 1 10km以上 10 46 1021
26 23:00 不定 1 9000m 10 46 1021
UTDD 281730Z 00000MPS 5000 HZ NSC 10/01 Q1030 R09/D NOSIG RMK QFE703/0937
UTDD 281700Z VRB01MPS 5000 HZ NSC 10/01 Q1029 R09/D NOSIG RMK QFE703/0937
UTDD 281630Z 32001MPS 4600 HZ NSC 11/01 Q1029 R09/D NOSIG RMK QFE703/0937
UTDD 281600Z 28001MPS 5000 HZ NSC 11/01 Q1029 R09/D NOSIG RMK QFE702/0936
UTDD 281530Z VRB01MPS 5000 HZ NSC 11/M00 Q1029 R09/D NOSIG RMK QFE702/0936
UTDD 281500Z 23002MPS 5000 HZ NSC 12/M00 Q1028 R09/D NOSIG RMK QFE702/0936
UTDD 281430Z 26003MPS 6000 NSC 12/M00 Q1028 R09/D TEMPO 28007MPS RMK QFE702/0936
UTDD 281400Z 29004MPS 6000 NSC 13/M00 Q1027 R09/D TEMPO 28007MPS RMK QFE701/0935
UTDD 281330Z 28004MPS 7000 NSC 13/00 Q1027 R09/D TEMPO 28007MPS RMK QFE701/0934
UTDD 281300Z 28004MPS 7000 NSC 14/01 Q1026 R09/D TEMPO 28007MPS RMK QFE700/0934
UTDD 281230Z 27004MPS 5000 FU NSC 15/01 Q1025 R09/D NOSIG RMK QFE700/0933
UTDD 281200Z 27003MPS 6000 FEW066 16/00 Q1025 R09/D NOSIG RMK QFE700/0933
UTDD 281130Z 27003MPS 7000 FEW066 17/00 Q1025 R09/D NOSIG RMK QFE700/0933
UTDD 281100Z 25004MPS 7000 FEW066 18/M00 Q1024 R09/D NOSIG RMK QFE699/0932
UTDD 281030Z 25004MPS 210V270 9000 FEW066 19/M01 Q1024 R09/D NOSIG RMK QFE699/0932
UTDD 281000Z 22004MPS 9999 FEW066 SCT110 19/M02 Q1024 R09/D NOSIG RMK QFE699/0932
UTDD 280930Z 23004MPS 9999 FEW066 SCT110 20/M02 Q1024 R09/D NOSIG RMK QFE699/0932
UTDD 280900Z VRB02MPS 9999 FEW066CB SCT120 20/M02 Q1024 R09/D NOSIG RMK QFE699/0932
UTDD 280830Z VRB02MPS 9999 FEW066CB SCT110 20/M02 Q1024 R09/CLRD// NOSIG RMK QFE699/0932
UTDD 280800Z VRB02MPS 9999 FEW066CB SCT110 20/M03 Q1024 R09/D NOSIG RMK QFE699/0932
UTDD 280730Z VRB02MPS 9999 FEW066CB SCT110 20/M02 Q1024 R09/D NOSIG RMK QFE699/0932
UTDD 280700Z VRB01MPS 9999 FEW066CB SCT120 19/M02 Q1024 R09/CLRD// NOSIG RMK QFE699/0932
UTDD 280630Z VRB02MPS 9999 FEW066 BKN130 19/M02 Q1024 R09/D NOSIG RMK QFE699/0933
UTDD 280600Z VRB01MPS 9999 FEW066 BKN130 18/M02 Q1025 R09/D NOSIG RMK QFE699/0933
UTDD 280530Z VRB01MPS 9000 FEW066 BKN130 17/M01 Q1024 R09/D NOSIG RMK QFE699/0932
UTDD 280500Z VRB01MPS 5000 FU FEW066 SCT130 16/02 Q1024 R09/D NOSIG RMK QFE699/0932
UTDD 280430Z 17002MPS 6000 FEW066 SCT130 16/M01 Q1024 R09/D NOSIG RMK QFE699/0932
UTDD 280400Z 00000MPS 5000 FU FEW066 BKN130 14/01 Q1024 R09/D NOSIG RMK QFE699/0932
UTDD 280330Z 00000MPS 7000 FEW066 BKN130 13/01 Q1023 R09/D NOSIG RMK QFE699/0932
UTDD 280300Z 00000MPS 7000 FEW066 BKN130 11/01 Q1023 R09/D NOSIG RMK QFE698/0931
UTDD 280230Z VRB01MPS 7000 FEW066 BKN130 11/M00 Q1022 R09/CLRD// NOSIG RMK QFE698/0931
UTDD 280200Z VRB02MPS 9000 FEW066 SCT130 11/M01 Q1022 R09/D NOSIG RMK QFE698/0930
UTDD 280130Z VRB02MPS 9999 FEW066 10/M01 Q1022 R09/CLRD// NOSIG RMK QFE697/0930
UTDD 280100Z 01003MPS 9999 NSC 10/M00 Q1021 R09/CLRD// NOSIG RMK QFE697/0930
UTDD 280030Z VRB02MPS 9999 NSC 08/00 Q1021 R09/CLRD// NOSIG RMK QFE697/0929
UTDD 280000Z VRB01MPS 9999 NSC 10/M00 Q1020 R09/CLRD// NOSIG RMK QFE697/0929
UTDD 272330Z 35002MPS 9999 NSC 10/M00 Q1020 R09/CLRD// NOSIG RMK QFE697/0929
UTDD 272300Z 05001MPS 9999 NSC 10/M01 Q1020 R09/CLRD// NOSIG RMK QFE696/0929
UTDD 272230Z 09002MPS 9999 NSC 10/M00 Q1020 R09/CLRD// NOSIG RMK QFE696/0929
UTDD 272200Z 00000MPS 9999 NSC 10/00 Q1020 R09/CLRD// NOSIG RMK QFE696/0929
UTDD 272130Z VRB01MPS 9000 FEW066 08/00 Q1020 R09/D NOSIG RMK QFE696/0929
UTDD 272100Z 00000MPS 9999 FEW066 10/M00 Q1020 R09/D NOSIG RMK QFE696/0928
UTDD 272030Z 00000MPS 9000 FEW066 10/M00 Q1020 R09/D NOSIG RMK QFE696/0928
UTDD 272000Z 00000MPS 7000 FEW066 10/M00 Q1020 R09/D NOSIG RMK QFE696/0928
UTDD 271930Z 00000MPS 8000 FEW066 11/M01 Q1019 R09/D NOSIG RMK QFE696/0928
UTDD 271900Z VRB01MPS 9000 FEW066 11/M02 Q1019 R09/D NOSIG RMK QFE696/0928
UTDD 271830Z VRB01MPS 9000 FEW066 12/M02 Q1019 R09/D NOSIG RMK QFE696/0928
UTDD 271800Z VRB01MPS 9000 FEW066 13/M03 Q1019 R09/D NOSIG RMK QFE696/0928
UTDD 271730Z 06003MPS 010V090 9000 FEW066 15/M04 Q1019 R09/D NOSIG RMK QFE696/0928
UTDD 271700Z VRB01MPS 8000 FEW066 13/M03 Q1019 R09/D NOSIG RMK QFE696/0928
UTDD 271630Z VRB02MPS 8000 FEW066 15/M03 Q1019 R09/D NOSIG RMK QFE695/0927
UTDD 271600Z 07002MPS 9000 FEW066 15/M02 Q1018 R09/D NOSIG RMK QFE695/0927
UTDD 271530Z 07002MPS 8000 FEW066 14/M01 Q1018 R09/D NOSIG RMK QFE695/0927
UTDD 271500Z 00000MPS 8000 FEW066 15/M02 Q1018 R09/D NOSIG RMK QFE695/0926
UTDD 271430Z 00000MPS 9000 FEW066 16/M03 Q1017 R09/D NOSIG RMK QFE694/0926
UTDD 271400Z 18002MPS 8000 FEW066 16/M03 Q1017 R09/D NOSIG RMK QFE694/0926
UTDD 271330Z 28003MPS 9999 FEW066 19/M07 Q1017 R09/D NOSIG RMK QFE694/0925
UTDD 271300Z 29005MPS 9999 FEW066 20/M05 Q1016 R09/D NOSIG RMK QFE694/0925
UTDD 271230Z 28004MPS 9999 FEW066 20/M04 Q1016 R09/D NOSIG RMK QFE694/0925
UTDD 271200Z 00000MPS 7000 FEW066 21/M01 Q1016 R09/D NOSIG RMK QFE693/0925
UTDD 271130Z 33002MPS 8000 FEW066 22/M03 Q1016 R09/D NOSIG RMK QFE693/0925
UTDD 271100Z 33002MPS 9999 FEW066 23/M04 Q1016 R09/D NOSIG RMK QFE693/0925
UTDD 271030Z VRB01MPS 9999 NSC 24/M09 Q1016 R09/CLRD// NOSIG RMK QFE693/0925
UTDD 271000Z VRB01MPS 9999 NSC 24/M08 Q1016 R09/D NOSIG RMK QFE694/0925
UTDD 270930Z VRB02MPS 9999 NSC 24/M08 Q1016 R09/D NOSIG RMK QFE694/0925
UTDD 270900Z 24003MPS 220V280 9999 NSC 25/M08 Q1016 R09/D NOSIG RMK QFE694/0925
UTDD 270830Z VRB02MPS 9999 NSC 25/M05 Q1017 R09/D NOSIG RMK QFE694/0925
UTDD 270800Z VRB02MPS 8000 NSC 24/M03 Q1017 R09/D NOSIG RMK QFE694/0926
UTDD 270730Z VRB02MPS 9000 NSC 23/M03 Q1018 R09/CLRD// NOSIG RMK QFE695/0926
UTDD 270700Z VRB02MPS 8000 NSC 22/M03 Q1018 R09/D NOSIG RMK QFE695/0927
UTDD 270630Z VRB01MPS 8000 NSC 20/M01 Q1019 R09/D NOSIG RMK QFE695/0927
UTDD 270600Z VRB01MPS 8000 NSC 19/M00 Q1019 R09/D NOSIG RMK QFE696/0928
UTDD 270500Z 20002MPS 5000 FU NSC 16/01 Q1020 R09/D NOSIG RMK QFE696/0928
UTDD 270430Z VRB02MPS 7000 NSC 15/M01 Q1020 R09/D NOSIG RMK QFE696/0929
UTDD 270400Z VRB01MPS 9000 NSC 12/M03 Q1020 R09/D NOSIG RMK QFE697/0929
UTDD 270330Z 00000MPS 9000 NSC 12/M01 Q1020 R09/D NOSIG RMK QFE697/0929
UTDD 270300Z 00000MPS 7000 NSC 08/M01 Q1020 R09/D NOSIG RMK QFE697/0929
UTDD 270230Z VRB01MPS 5000 FU NSC 05/M01 Q1020 R09/D NOSIG RMK QFE696/0929
UTDD 270200Z VRB02MPS 8000 NSC 05/M02 Q1020 R09/D NOSIG RMK QFE696/0928
UTDD 270130Z 05001MPS 9999 NSC 06/M03 Q1020 R09/CLRD// NOSIG RMK QFE696/0928
UTDD 270100Z 05001MPS 9999 NSC 06/M02 Q1020 R09/D NOSIG RMK QFE696/0928
UTDD 270030Z VRB01MPS 9999 NSC 05/M01 Q1020 R09/D NOSIG RMK QFE696/0928
UTDD 270000Z VRB02MPS 9999 NSC 06/M03 Q1020 R09/D NOSIG RMK QFE696/0928
UTDD 262330Z VRB01MPS 9999 NSC 07/M02 Q1020 R09/D NOSIG RMK QFE696/0928
UTDD 262300Z VRB01MPS 9999 NSC 07/M03 Q1020 R09/D NOSIG RMK QFE696/0928
UTDD 262230Z 00000MPS 9999 NSC 07/M03 Q1020 R09/D NOSIG RMK QFE696/0928
UTDD 262200Z 00000MPS 9999 NSC 07/M02 Q1020 R09/D NOSIG RMK QFE697/0929
UTDD 262130Z 05002MPS 9999 NSC 08/M03 Q1020 R09/D NOSIG RMK QFE697/0929
UTDD 262100Z 06002MPS 9999 NSC 09/M03 Q1021 R09/D NOSIG RMK QFE697/0929
UTDD 262030Z 00000MPS 9999 NSC 07/M02 Q1021 R09/CLRD// NOSIG RMK QFE697/0929
UTDD 262000Z 00000MPS 9999 NSC 08/M02 Q1021 R09/D NOSIG RMK QFE697/0929
UTDD 261930Z 05002MPS 9999 NSC 10/M03 Q1021 R09/D NOSIG RMK QFE697/0929
UTDD 261900Z 00000MPS 9999 NSC 09/M01 Q1021 R09/CLRD// NOSIG RMK QFE697/0929
UTDD 261830Z VRB01MPS 9999 NSC 10/M01 Q1021 R09/D NOSIG RMK QFE697/0930
UTDD 261800Z VRB01MPS 9000 NSC 10/M01 Q1021 R09/D NOSIG RMK QFE697/0930